sensor_id;sensor_type;location;lat;lon;timestamp;P1;durP1;ratioP1;P2;durP2;ratioP2
21611;SDS011;47005;52.292;13.452;2023-08-12T00:00:18;6.90;;;3.90;;
21611;SDS011;47005;52.292;13.452;2023-08-12T00:02:44;7.18;;;4.28;;
21611;SDS011;47005;52.292;13.452;2023-08-12T00:05:11;4.28;;;3.47;;
21611;SDS011;47005;52.292;13.452;2023-08-12T00:07:37;4.25;;;3.50;;
21611;SDS011;47005;52.292;13.452;2023-08-12T00:10:06;5.22;;;3.78;;
21611;SDS011;47005;52.292;13.452;2023-08-12T00:12:33;4.38;;;3.22;;
21611;SDS011;47005;52.292;13.452;2023-08-12T00:15:03;4.68;;;3.55;;
21611;SDS011;47005;52.292;13.452;2023-08-12T00:17:31;12.93;;;4.22;;
21611;SDS011;47005;52.292;13.452;2023-08-12T00:19:57;7.53;;;3.90;;
21611;SDS011;47005;52.292;13.452;2023-08-12T00:22:22;8.65;;;4.07;;
21611;SDS011;47005;52.292;13.452;2023-08-12T00:24:48;5.20;;;3.97;;
21611;SDS011;47005;52.292;13.452;2023-08-12T00:27:14;4.68;;;4.05;;
21611;SDS011;47005;52.292;13.452;2023-08-12T00:29:40;5.75;;;4.05;;
21611;SDS011;47005;52.292;13.452;2023-08-12T00:32:05;4.13;;;3.47;;
21611;SDS011;47005;52.292;13.452;2023-08-12T00:34:33;5.90;;;3.88;;
21611;SDS011;47005;52.292;13.452;2023-08-12T00:36:59;5.53;;;3.70;;
21611;SDS011;47005;52.292;13.452;2023-08-12T00:39:24;6.82;;;4.13;;
21611;SDS011;47005;52.292;13.452;2023-08-12T00:41:50;5.60;;;3.65;;
21611;SDS011;47005;52.292;13.452;2023-08-12T00:44:16;5.47;;;3.90;;
21611;SDS011;47005;52.292;13.452;2023-08-12T00:46:41;4.47;;;3.58;;
21611;SDS011;47005;52.292;13.452;2023-08-12T00:49:08;5.10;;;3.83;;
21611;SDS011;47005;52.292;13.452;2023-08-12T00:51:35;6.05;;;3.25;;
21611;SDS011;47005;52.292;13.452;2023-08-12T00:54:04;4.50;;;3.58;;
21611;SDS011;47005;52.292;13.452;2023-08-12T00:56:30;6.35;;;4.22;;
21611;SDS011;47005;52.292;13.452;2023-08-12T00:58:57;5.07;;;4.22;;
21611;SDS011;47005;52.292;13.452;2023-08-12T01:01:25;7.00;;;4.00;;
21611;SDS011;47005;52.292;13.452;2023-08-12T01:03:51;6.40;;;3.80;;
21611;SDS011;47005;52.292;13.452;2023-08-12T01:06:17;4.45;;;3.47;;
21611;SDS011;47005;52.292;13.452;2023-08-12T01:08:42;5.80;;;4.05;;
21611;SDS011;47005;52.292;13.452;2023-08-12T01:16:32;7.60;;;4.38;;
21611;SDS011;47005;52.292;13.452;2023-08-12T01:19:03;7.35;;;4.55;;
21611;SDS011;47005;52.292;13.452;2023-08-12T01:21:31;6.35;;;4.15;;
21611;SDS011;47005;52.292;13.452;2023-08-12T01:24:01;6.90;;;4.00;;
21611;SDS011;47005;52.292;13.452;2023-08-12T01:26:27;6.85;;;4.15;;
21611;SDS011;47005;52.292;13.452;2023-08-12T01:28:53;4.35;;;3.80;;
21611;SDS011;47005;52.292;13.452;2023-08-12T01:31:23;9.75;;;4.78;;
21611;SDS011;47005;52.292;13.452;2023-08-12T01:36:40;7.72;;;3.95;;
21611;SDS011;47005;52.292;13.452;2023-08-12T01:39:09;4.05;;;3.05;;
21611;SDS011;47005;52.292;13.452;2023-08-12T01:41:36;4.57;;;3.60;;
21611;SDS011;47005;52.292;13.452;2023-08-12T01:44:02;5.38;;;3.58;;
21611;SDS011;47005;52.292;13.452;2023-08-12T01:46:28;5.38;;;3.83;;
21611;SDS011;47005;52.292;13.452;2023-08-12T01:48:54;3.55;;;2.80;;
21611;SDS011;47005;52.292;13.452;2023-08-12T01:51:19;4.57;;;3.55;;
21611;SDS011;47005;52.292;13.452;2023-08-12T01:53:45;4.25;;;3.47;;
21611;SDS011;47005;52.292;13.452;2023-08-12T01:56:10;6.18;;;3.72;;
21611;SDS011;47005;52.292;13.452;2023-08-12T01:58:36;5.78;;;3.63;;
21611;SDS011;47005;52.292;13.452;2023-08-12T02:01:02;8.13;;;3.85;;
21611;SDS011;47005;52.292;13.452;2023-08-12T02:03:27;4.50;;;3.40;;
21611;SDS011;47005;52.292;13.452;2023-08-12T02:05:53;7.00;;;3.40;;
21611;SDS011;47005;52.292;13.452;2023-08-12T02:08:18;3.10;;;2.65;;
21611;SDS011;47005;52.292;13.452;2023-08-12T02:10:44;6.57;;;3.70;;
21611;SDS011;47005;52.292;13.452;2023-08-12T02:13:10;3.85;;;3.15;;
21611;SDS011;47005;52.292;13.452;2023-08-12T02:15:35;4.95;;;3.35;;
21611;SDS011;47005;52.292;13.452;2023-08-12T02:18:01;5.18;;;3.85;;
21611;SDS011;47005;52.292;13.452;2023-08-12T02:20:28;5.80;;;4.20;;
21611;SDS011;47005;52.292;13.452;2023-08-12T02:22:53;4.40;;;3.33;;
21611;SDS011;47005;52.292;13.452;2023-08-12T02:25:19;4.47;;;3.42;;
21611;SDS011;47005;52.292;13.452;2023-08-12T02:27:44;4.80;;;3.63;;
21611;SDS011;47005;52.292;13.452;2023-08-12T02:30:10;4.35;;;3.13;;
21611;SDS011;47005;52.292;13.452;2023-08-12T02:32:36;5.10;;;3.55;;
21611;SDS011;47005;52.292;13.452;2023-08-12T02:35:02;5.22;;;3.58;;
21611;SDS011;47005;52.292;13.452;2023-08-12T02:37:27;6.18;;;3.08;;
21611;SDS011;47005;52.292;13.452;2023-08-12T02:39:53;4.50;;;3.40;;
21611;SDS011;47005;52.292;13.452;2023-08-12T02:42:19;5.15;;;3.70;;
21611;SDS011;47005;52.292;13.452;2023-08-12T02:44:44;6.78;;;3.95;;
21611;SDS011;47005;52.292;13.452;2023-08-12T02:47:10;4.80;;;3.83;;
21611;SDS011;47005;52.292;13.452;2023-08-12T02:49:35;4.65;;;3.72;;
21611;SDS011;47005;52.292;13.452;2023-08-12T02:52:01;5.72;;;3.90;;
21611;SDS011;47005;52.292;13.452;2023-08-12T02:54:27;3.95;;;3.00;;
21611;SDS011;47005;52.292;13.452;2023-08-12T02:56:53;6.15;;;3.67;;
21611;SDS011;47005;52.292;13.452;2023-08-12T02:59:19;10.38;;;3.95;;
21611;SDS011;47005;52.292;13.452;2023-08-12T03:01:44;5.75;;;4.40;;
21611;SDS011;47005;52.292;13.452;2023-08-12T03:04:10;6.50;;;3.70;;
21611;SDS011;47005;52.292;13.452;2023-08-12T03:06:36;3.95;;;3.38;;
21611;SDS011;47005;52.292;13.452;2023-08-12T03:09:01;5.22;;;4.15;;
21611;SDS011;47005;52.292;13.452;2023-08-12T03:11:27;4.60;;;3.65;;
21611;SDS011;47005;52.292;13.452;2023-08-12T03:13:53;7.68;;;3.88;;
21611;SDS011;47005;52.292;13.452;2023-08-12T03:16:18;4.80;;;3.75;;
21611;SDS011;47005;52.292;13.452;2023-08-12T03:18:44;5.30;;;3.83;;
21611;SDS011;47005;52.292;13.452;2023-08-12T03:21:10;4.05;;;3.17;;
21611;SDS011;47005;52.292;13.452;2023-08-12T03:23:36;5.65;;;3.83;;
21611;SDS011;47005;52.292;13.452;2023-08-12T03:26:02;5.05;;;3.70;;
21611;SDS011;47005;52.292;13.452;2023-08-12T03:28:28;5.93;;;3.85;;
21611;SDS011;47005;52.292;13.452;2023-08-12T03:30:54;5.22;;;4.10;;
21611;SDS011;47005;52.292;13.452;2023-08-12T03:33:20;8.23;;;3.75;;
21611;SDS011;47005;52.292;13.452;2023-08-12T03:35:46;4.90;;;3.58;;
21611;SDS011;47005;52.292;13.452;2023-08-12T03:38:13;5.05;;;4.15;;
21611;SDS011;47005;52.292;13.452;2023-08-12T03:40:39;6.10;;;4.00;;
21611;SDS011;47005;52.292;13.452;2023-08-12T03:43:05;5.43;;;3.60;;
21611;SDS011;47005;52.292;13.452;2023-08-12T03:45:30;6.72;;;4.00;;
21611;SDS011;47005;52.292;13.452;2023-08-12T03:47:56;8.77;;;4.22;;
21611;SDS011;47005;52.292;13.452;2023-08-12T03:50:21;4.55;;;3.83;;
21611;SDS011;47005;52.292;13.452;2023-08-12T03:52:47;4.25;;;3.63;;
21611;SDS011;47005;52.292;13.452;2023-08-12T03:55:13;5.90;;;3.95;;
21611;SDS011;47005;52.292;13.452;2023-08-12T03:57:38;4.93;;;3.60;;
21611;SDS011;47005;52.292;13.452;2023-08-12T04:00:04;6.35;;;4.10;;
21611;SDS011;47005;52.292;13.452;2023-08-12T04:02:32;5.88;;;4.03;;
21611;SDS011;47005;52.292;13.452;2023-08-12T04:04:58;4.60;;;3.95;;
21611;SDS011;47005;52.292;13.452;2023-08-12T04:07:23;7.57;;;4.40;;
21611;SDS011;47005;52.292;13.452;2023-08-12T04:09:49;5.45;;;4.05;;
21611;SDS011;47005;52.292;13.452;2023-08-12T04:12:15;5.75;;;4.50;;
21611;SDS011;47005;52.292;13.452;2023-08-12T04:14:40;5.43;;;4.05;;
21611;SDS011;47005;52.292;13.452;2023-08-12T04:17:06;9.93;;;4.18;;
21611;SDS011;47005;52.292;13.452;2023-08-12T04:19:31;7.22;;;4.10;;
21611;SDS011;47005;52.292;13.452;2023-08-12T04:21:57;6.53;;;4.45;;
21611;SDS011;47005;52.292;13.452;2023-08-12T04:24:23;6.88;;;4.70;;
21611;SDS011;47005;52.292;13.452;2023-08-12T04:26:48;7.53;;;4.43;;
21611;SDS011;47005;52.292;13.452;2023-08-12T04:29:14;4.95;;;3.92;;
21611;SDS011;47005;52.292;13.452;2023-08-12T04:31:40;5.93;;;4.25;;
21611;SDS011;47005;52.292;13.452;2023-08-12T04:34:06;5.20;;;3.83;;
21611;SDS011;47005;52.292;13.452;2023-08-12T04:36:31;5.68;;;4.35;;
21611;SDS011;47005;52.292;13.452;2023-08-12T04:38:57;7.20;;;4.53;;
21611;SDS011;47005;52.292;13.452;2023-08-12T04:41:23;5.38;;;4.10;;
21611;SDS011;47005;52.292;13.452;2023-08-12T04:43:49;4.78;;;3.47;;
21611;SDS011;47005;52.292;13.452;2023-08-12T04:46:14;7.47;;;4.22;;
21611;SDS011;47005;52.292;13.452;2023-08-12T04:48:40;7.38;;;4.85;;
21611;SDS011;47005;52.292;13.452;2023-08-12T04:51:06;6.68;;;4.28;;
21611;SDS011;47005;52.292;13.452;2023-08-12T04:53:32;5.75;;;4.32;;
21611;SDS011;47005;52.292;13.452;2023-08-12T04:55:57;7.45;;;4.38;;
21611;SDS011;47005;52.292;13.452;2023-08-12T04:58:23;7.68;;;4.25;;
21611;SDS011;47005;52.292;13.452;2023-08-12T05:00:52;6.13;;;4.38;;
21611;SDS011;47005;52.292;13.452;2023-08-12T05:03:17;6.55;;;4.30;;
21611;SDS011;47005;52.292;13.452;2023-08-12T05:05:43;8.50;;;5.13;;
21611;SDS011;47005;52.292;13.452;2023-08-12T05:08:08;6.65;;;4.07;;
21611;SDS011;47005;52.292;13.452;2023-08-12T05:10:34;6.70;;;4.18;;
21611;SDS011;47005;52.292;13.452;2023-08-12T05:13:00;5.57;;;4.43;;
21611;SDS011;47005;52.292;13.452;2023-08-12T05:15:25;5.30;;;4.03;;
21611;SDS011;47005;52.292;13.452;2023-08-12T05:17:51;7.28;;;4.72;;
21611;SDS011;47005;52.292;13.452;2023-08-12T05:20:17;7.07;;;4.35;;
21611;SDS011;47005;52.292;13.452;2023-08-12T05:22:42;7.90;;;4.22;;
21611;SDS011;47005;52.292;13.452;2023-08-12T05:25:08;7.35;;;4.43;;
21611;SDS011;47005;52.292;13.452;2023-08-12T05:27:33;7.03;;;4.82;;
21611;SDS011;47005;52.292;13.452;2023-08-12T05:29:59;8.35;;;4.93;;
21611;SDS011;47005;52.292;13.452;2023-08-12T05:32:25;7.55;;;4.03;;
21611;SDS011;47005;52.292;13.452;2023-08-12T05:34:54;7.82;;;4.35;;
21611;SDS011;47005;52.292;13.452;2023-08-12T05:37:20;6.28;;;4.60;;
21611;SDS011;47005;52.292;13.452;2023-08-12T05:39:46;4.97;;;3.67;;
21611;SDS011;47005;52.292;13.452;2023-08-12T05:42:11;8.43;;;4.35;;
21611;SDS011;47005;52.292;13.452;2023-08-12T05:44:37;8.30;;;4.95;;
21611;SDS011;47005;52.292;13.452;2023-08-12T05:47:02;4.90;;;4.07;;
21611;SDS011;47005;52.292;13.452;2023-08-12T05:49:28;6.78;;;4.28;;
21611;SDS011;47005;52.292;13.452;2023-08-12T05:51:54;5.82;;;4.45;;
21611;SDS011;47005;52.292;13.452;2023-08-12T05:54:19;5.88;;;4.18;;
21611;SDS011;47005;52.292;13.452;2023-08-12T05:56:45;6.82;;;4.05;;
21611;SDS011;47005;52.292;13.452;2023-08-12T05:59:10;6.60;;;4.75;;
21611;SDS011;47005;52.292;13.452;2023-08-12T06:01:36;8.80;;;4.45;;
21611;SDS011;47005;52.292;13.452;2023-08-12T06:04:02;4.82;;;4.28;;
21611;SDS011;47005;52.292;13.452;2023-08-12T06:06:27;7.45;;;4.80;;
21611;SDS011;47005;52.292;13.452;2023-08-12T06:08:53;9.32;;;4.72;;
21611;SDS011;47005;52.292;13.452;2023-08-12T06:11:19;8.13;;;3.83;;
21611;SDS011;47005;52.292;13.452;2023-08-12T06:13:44;5.13;;;4.18;;
21611;SDS011;47005;52.292;13.452;2023-08-12T06:16:10;4.93;;;3.83;;
21611;SDS011;47005;52.292;13.452;2023-08-12T06:18:35;7.95;;;4.55;;
21611;SDS011;47005;52.292;13.452;2023-08-12T06:21:01;6.38;;;4.35;;
21611;SDS011;47005;52.292;13.452;2023-08-12T06:23:26;8.93;;;4.18;;
21611;SDS011;47005;52.292;13.452;2023-08-12T06:25:52;5.30;;;4.35;;
21611;SDS011;47005;52.292;13.452;2023-08-12T06:28:18;6.93;;;4.28;;
21611;SDS011;47005;52.292;13.452;2023-08-12T06:30:47;5.43;;;4.15;;
21611;SDS011;47005;52.292;13.452;2023-08-12T06:33:13;5.00;;;3.97;;
21611;SDS011;47005;52.292;13.452;2023-08-12T06:35:39;6.07;;;4.50;;
21611;SDS011;47005;52.292;13.452;2023-08-12T06:38:05;7.75;;;4.40;;
21611;SDS011;47005;52.292;13.452;2023-08-12T06:40:31;7.55;;;3.83;;
21611;SDS011;47005;52.292;13.452;2023-08-12T06:42:56;6.07;;;4.10;;
21611;SDS011;47005;52.292;13.452;2023-08-12T06:45:22;5.72;;;4.40;;
21611;SDS011;47005;52.292;13.452;2023-08-12T06:47:47;7.13;;;3.47;;
21611;SDS011;47005;52.292;13.452;2023-08-12T06:50:13;6.55;;;4.43;;
21611;SDS011;47005;52.292;13.452;2023-08-12T06:52:39;7.47;;;4.50;;
21611;SDS011;47005;52.292;13.452;2023-08-12T06:55:04;6.10;;;4.18;;
21611;SDS011;47005;52.292;13.452;2023-08-12T06:57:30;5.22;;;3.88;;
21611;SDS011;47005;52.292;13.452;2023-08-12T06:59:56;6.95;;;4.05;;
21611;SDS011;47005;52.292;13.452;2023-08-12T07:02:22;6.55;;;3.85;;
21611;SDS011;47005;52.292;13.452;2023-08-12T07:04:48;6.57;;;4.35;;
21611;SDS011;47005;52.292;13.452;2023-08-12T07:07:13;7.82;;;4.43;;
21611;SDS011;47005;52.292;13.452;2023-08-12T07:09:39;5.55;;;4.22;;
21611;SDS011;47005;52.292;13.452;2023-08-12T07:12:04;6.15;;;4.50;;
21611;SDS011;47005;52.292;13.452;2023-08-12T07:14:30;5.93;;;3.75;;
21611;SDS011;47005;52.292;13.452;2023-08-12T07:16:56;6.38;;;4.70;;
21611;SDS011;47005;52.292;13.452;2023-08-12T07:19:22;8.75;;;5.07;;
21611;SDS011;47005;52.292;13.452;2023-08-12T07:21:48;6.00;;;4.88;;
21611;SDS011;47005;52.292;13.452;2023-08-12T07:24:13;5.63;;;3.90;;
21611;SDS011;47005;52.292;13.452;2023-08-12T07:26:39;5.90;;;4.47;;
21611;SDS011;47005;52.292;13.452;2023-08-12T07:29:04;5.78;;;4.68;;
21611;SDS011;47005;52.292;13.452;2023-08-12T07:31:30;9.93;;;4.93;;
21611;SDS011;47005;52.292;13.452;2023-08-12T07:33:56;9.40;;;4.63;;
21611;SDS011;47005;52.292;13.452;2023-08-12T07:36:21;5.53;;;4.22;;
21611;SDS011;47005;52.292;13.452;2023-08-12T07:38:47;10.65;;;4.95;;
21611;SDS011;47005;52.292;13.452;2023-08-12T07:41:13;7.13;;;4.97;;
21611;SDS011;47005;52.292;13.452;2023-08-12T07:43:38;5.93;;;4.63;;
21611;SDS011;47005;52.292;13.452;2023-08-12T07:46:04;5.25;;;4.75;;
21611;SDS011;47005;52.292;13.452;2023-08-12T07:48:30;12.05;;;5.50;;
21611;SDS011;47005;52.292;13.452;2023-08-12T07:50:58;6.82;;;4.13;;
21611;SDS011;47005;52.292;13.452;2023-08-12T07:53:24;6.63;;;4.40;;
21611;SDS011;47005;52.292;13.452;2023-08-12T07:55:50;8.73;;;5.10;;
21611;SDS011;47005;52.292;13.452;2023-08-12T07:58:16;6.28;;;4.40;;
21611;SDS011;47005;52.292;13.452;2023-08-12T08:00:42;6.78;;;4.20;;
21611;SDS011;47005;52.292;13.452;2023-08-12T08:03:08;5.75;;;4.65;;
21611;SDS011;47005;52.292;13.452;2023-08-12T08:05:33;6.13;;;4.68;;
21611;SDS011;47005;52.292;13.452;2023-08-12T08:07:59;6.03;;;4.70;;
21611;SDS011;47005;52.292;13.452;2023-08-12T08:10:24;5.32;;;4.63;;
21611;SDS011;47005;52.292;13.452;2023-08-12T08:12:50;4.95;;;4.10;;
21611;SDS011;47005;52.292;13.452;2023-08-12T08:15:16;6.43;;;5.20;;
21611;SDS011;47005;52.292;13.452;2023-08-12T08:17:41;5.40;;;4.38;;
21611;SDS011;47005;52.292;13.452;2023-08-12T08:20:07;6.22;;;5.05;;
21611;SDS011;47005;52.292;13.452;2023-08-12T08:22:33;7.57;;;4.70;;
21611;SDS011;47005;52.292;13.452;2023-08-12T08:24:59;5.50;;;4.78;;
21611;SDS011;47005;52.292;13.452;2023-08-12T08:27:24;6.50;;;4.53;;
21611;SDS011;47005;52.292;13.452;2023-08-12T08:29:50;7.18;;;5.18;;
21611;SDS011;47005;52.292;13.452;2023-08-12T08:32:16;5.47;;;4.30;;
21611;SDS011;47005;52.292;13.452;2023-08-12T08:34:42;8.68;;;5.72;;
21611;SDS011;47005;52.292;13.452;2023-08-12T08:37:07;8.07;;;5.32;;
21611;SDS011;47005;52.292;13.452;2023-08-12T08:39:33;8.25;;;4.28;;
21611;SDS011;47005;52.292;13.452;2023-08-12T08:41:59;7.30;;;4.88;;
21611;SDS011;47005;52.292;13.452;2023-08-12T08:44:28;7.85;;;4.82;;
21611;SDS011;47005;52.292;13.452;2023-08-12T08:46:57;8.07;;;5.15;;
21611;SDS011;47005;52.292;13.452;2023-08-12T08:49:24;9.35;;;4.68;;
21611;SDS011;47005;52.292;13.452;2023-08-12T08:51:50;7.63;;;4.40;;
21611;SDS011;47005;52.292;13.452;2023-08-12T08:54:17;7.47;;;4.90;;
21611;SDS011;47005;52.292;13.452;2023-08-12T08:56:44;7.82;;;5.32;;
21611;SDS011;47005;52.292;13.452;2023-08-12T08:59:10;6.28;;;5.30;;
21611;SDS011;47005;52.292;13.452;2023-08-12T09:01:36;7.88;;;5.60;;
21611;SDS011;47005;52.292;13.452;2023-08-12T09:04:03;6.78;;;4.63;;
21611;SDS011;47005;52.292;13.452;2023-08-12T09:06:30;8.85;;;5.35;;
21611;SDS011;47005;52.292;13.452;2023-08-12T09:08:57;6.00;;;4.85;;
21611;SDS011;47005;52.292;13.452;2023-08-12T09:11:25;5.70;;;5.05;;
21611;SDS011;47005;52.292;13.452;2023-08-12T09:13:51;5.75;;;4.53;;
21611;SDS011;47005;52.292;13.452;2023-08-12T09:16:19;7.47;;;5.10;;
21611;SDS011;47005;52.292;13.452;2023-08-12T09:18:45;8.13;;;5.40;;
21611;SDS011;47005;52.292;13.452;2023-08-12T09:21:10;9.00;;;5.55;;
21611;SDS011;47005;52.292;13.452;2023-08-12T09:23:39;8.10;;;5.30;;
21611;SDS011;47005;52.292;13.452;2023-08-12T09:26:15;8.65;;;5.07;;
21611;SDS011;47005;52.292;13.452;2023-08-12T09:28:42;7.53;;;5.53;;
21611;SDS011;47005;52.292;13.452;2023-08-12T09:31:12;9.40;;;5.15;;
21611;SDS011;47005;52.292;13.452;2023-08-12T09:33:50;8.57;;;4.70;;
21611;SDS011;47005;52.292;13.452;2023-08-12T09:36:16;8.63;;;4.95;;
21611;SDS011;47005;52.292;13.452;2023-08-12T09:38:42;6.43;;;5.45;;
21611;SDS011;47005;52.292;13.452;2023-08-12T09:41:09;5.75;;;4.90;;
21611;SDS011;47005;52.292;13.452;2023-08-12T09:43:35;7.20;;;5.20;;
21611;SDS011;47005;52.292;13.452;2023-08-12T09:46:06;6.75;;;5.13;;
21611;SDS011;47005;52.292;13.452;2023-08-12T09:48:35;8.55;;;5.25;;
21611;SDS011;47005;52.292;13.452;2023-08-12T09:51:00;5.68;;;4.63;;
21611;SDS011;47005;52.292;13.452;2023-08-12T09:53:26;7.03;;;5.38;;
21611;SDS011;47005;52.292;13.452;2023-08-12T09:55:52;6.65;;;5.03;;
21611;SDS011;47005;52.292;13.452;2023-08-12T09:58:19;6.78;;;5.60;;
21611;SDS011;47005;52.292;13.452;2023-08-12T10:00:49;6.75;;;5.10;;
21611;SDS011;47005;52.292;13.452;2023-08-12T10:03:16;6.28;;;4.97;;
21611;SDS011;47005;52.292;13.452;2023-08-12T10:05:44;7.03;;;5.53;;
21611;SDS011;47005;52.292;13.452;2023-08-12T10:08:11;5.40;;;4.43;;
21611;SDS011;47005;52.292;13.452;2023-08-12T10:10:39;8.00;;;4.97;;
21611;SDS011;47005;52.292;13.452;2023-08-12T10:13:04;7.43;;;4.93;;
21611;SDS011;47005;52.292;13.452;2023-08-12T10:15:32;6.18;;;4.90;;
21611;SDS011;47005;52.292;13.452;2023-08-12T10:17:59;6.78;;;5.40;;
21611;SDS011;47005;52.292;13.452;2023-08-12T10:20:25;6.50;;;5.30;;
21611;SDS011;47005;52.292;13.452;2023-08-12T10:22:51;6.70;;;5.13;;
21611;SDS011;47005;52.292;13.452;2023-08-12T10:25:20;5.82;;;5.18;;
21611;SDS011;47005;52.292;13.452;2023-08-12T10:27:49;6.63;;;4.57;;
21611;SDS011;47005;52.292;13.452;2023-08-12T10:30:15;5.57;;;5.03;;
21611;SDS011;47005;52.292;13.452;2023-08-12T10:32:41;5.60;;;4.78;;
21611;SDS011;47005;52.292;13.452;2023-08-12T10:35:08;7.60;;;4.90;;
21611;SDS011;47005;52.292;13.452;2023-08-12T10:37:34;5.72;;;5.13;;
21611;SDS011;47005;52.292;13.452;2023-08-12T10:40:03;7.30;;;5.60;;
21611;SDS011;47005;52.292;13.452;2023-08-12T10:45:09;5.80;;;4.97;;
21611;SDS011;47005;52.292;13.452;2023-08-12T10:47:43;7.43;;;5.63;;
21611;SDS011;47005;52.292;13.452;2023-08-12T10:50:19;6.28;;;5.13;;
21611;SDS011;47005;52.292;13.452;2023-08-12T10:52:46;5.10;;;4.25;;
21611;SDS011;47005;52.292;13.452;2023-08-12T10:57:49;5.47;;;4.40;;
21611;SDS011;47005;52.292;13.452;2023-08-12T11:00:17;5.45;;;4.47;;
21611;SDS011;47005;52.292;13.452;2023-08-12T11:02:48;5.60;;;4.47;;
21611;SDS011;47005;52.292;13.452;2023-08-12T11:05:18;5.80;;;4.65;;
21611;SDS011;47005;52.292;13.452;2023-08-12T11:10:15;8.23;;;4.93;;
21611;SDS011;47005;52.292;13.452;2023-08-12T11:12:46;6.28;;;4.30;;
21611;SDS011;47005;52.292;13.452;2023-08-12T11:17:58;5.55;;;4.82;;
21611;SDS011;47005;52.292;13.452;2023-08-12T11:20:28;5.38;;;4.20;;
21611;SDS011;47005;52.292;13.452;2023-08-12T11:22:56;5.47;;;4.03;;
21611;SDS011;47005;52.292;13.452;2023-08-12T11:25:25;6.88;;;4.60;;
21611;SDS011;47005;52.292;13.452;2023-08-12T11:27:52;5.65;;;4.53;;
21611;SDS011;47005;52.292;13.452;2023-08-12T11:30:19;5.95;;;4.75;;
21611;SDS011;47005;52.292;13.452;2023-08-12T11:32:46;5.28;;;4.00;;
21611;SDS011;47005;52.292;13.452;2023-08-12T11:35:14;5.68;;;5.05;;
21611;SDS011;47005;52.292;13.452;2023-08-12T11:37:42;6.22;;;4.78;;
21611;SDS011;47005;52.292;13.452;2023-08-12T11:40:10;6.75;;;5.10;;
21611;SDS011;47005;52.292;13.452;2023-08-12T11:42:40;7.32;;;4.53;;
21611;SDS011;47005;52.292;13.452;2023-08-12T11:45:07;5.22;;;4.40;;
21611;SDS011;47005;52.292;13.452;2023-08-12T11:47:34;5.38;;;4.32;;
21611;SDS011;47005;52.292;13.452;2023-08-12T11:50:03;6.28;;;5.20;;
21611;SDS011;47005;52.292;13.452;2023-08-12T11:52:30;8.00;;;4.68;;
21611;SDS011;47005;52.292;13.452;2023-08-12T11:54:56;7.78;;;4.10;;
21611;SDS011;47005;52.292;13.452;2023-08-12T11:57:23;5.53;;;4.32;;
21611;SDS011;47005;52.292;13.452;2023-08-12T11:59:51;6.13;;;4.72;;
21611;SDS011;47005;52.292;13.452;2023-08-12T12:02:18;7.80;;;5.07;;
21611;SDS011;47005;52.292;13.452;2023-08-12T12:04:44;6.18;;;5.07;;
21611;SDS011;47005;52.292;13.452;2023-08-12T12:07:25;6.65;;;5.47;;
21611;SDS011;47005;52.292;13.452;2023-08-12T12:09:52;7.00;;;4.75;;
21611;SDS011;47005;52.292;13.452;2023-08-12T12:12:25;6.47;;;5.07;;
21611;SDS011;47005;52.292;13.452;2023-08-12T12:14:51;7.85;;;4.85;;
21611;SDS011;47005;52.292;13.452;2023-08-12T12:17:21;11.52;;;5.47;;
21611;SDS011;47005;52.292;13.452;2023-08-12T12:19:51;7.03;;;4.57;;
21611;SDS011;47005;52.292;13.452;2023-08-12T12:22:19;6.53;;;5.13;;
21611;SDS011;47005;52.292;13.452;2023-08-12T12:24:45;6.20;;;4.80;;
21611;SDS011;47005;52.292;13.452;2023-08-12T12:27:12;6.20;;;4.82;;
21611;SDS011;47005;52.292;13.452;2023-08-12T12:29:38;7.95;;;4.90;;
21611;SDS011;47005;52.292;13.452;2023-08-12T12:32:04;7.38;;;5.25;;
21611;SDS011;47005;52.292;13.452;2023-08-12T12:34:30;10.25;;;5.80;;
21611;SDS011;47005;52.292;13.452;2023-08-12T12:36:55;6.05;;;4.90;;
21611;SDS011;47005;52.292;13.452;2023-08-12T12:39:21;8.00;;;4.70;;
21611;SDS011;47005;52.292;13.452;2023-08-12T12:41:48;6.60;;;4.68;;
21611;SDS011;47005;52.292;13.452;2023-08-12T12:44:14;7.70;;;5.10;;
21611;SDS011;47005;52.292;13.452;2023-08-12T12:46:40;6.43;;;5.45;;
21611;SDS011;47005;52.292;13.452;2023-08-12T12:49:05;5.55;;;4.88;;
21611;SDS011;47005;52.292;13.452;2023-08-12T12:51:31;6.30;;;5.05;;
21611;SDS011;47005;52.292;13.452;2023-08-12T12:53:57;7.30;;;5.85;;
21611;SDS011;47005;52.292;13.452;2023-08-12T12:56:23;7.22;;;5.22;;
21611;SDS011;47005;52.292;13.452;2023-08-12T12:58:48;8.60;;;5.25;;
21611;SDS011;47005;52.292;13.452;2023-08-12T13:01:14;6.47;;;5.50;;
21611;SDS011;47005;52.292;13.452;2023-08-12T13:03:39;6.28;;;5.10;;
21611;SDS011;47005;52.292;13.452;2023-08-12T13:06:05;7.28;;;5.68;;
21611;SDS011;47005;52.292;13.452;2023-08-12T13:08:31;6.03;;;5.05;;
21611;SDS011;47005;52.292;13.452;2023-08-12T13:10:57;5.72;;;4.80;;
21611;SDS011;47005;52.292;13.452;2023-08-12T13:13:23;6.05;;;4.43;;
21611;SDS011;47005;52.292;13.452;2023-08-12T13:15:48;6.72;;;4.47;;
21611;SDS011;47005;52.292;13.452;2023-08-12T13:18:14;6.22;;;4.32;;
21611;SDS011;47005;52.292;13.452;2023-08-12T13:20:40;5.15;;;3.88;;
21611;SDS011;47005;52.292;13.452;2023-08-12T13:23:05;4.80;;;3.83;;
21611;SDS011;47005;52.292;13.452;2023-08-12T13:25:32;7.50;;;4.68;;
21611;SDS011;47005;52.292;13.452;2023-08-12T13:28:02;8.00;;;4.07;;
21611;SDS011;47005;52.292;13.452;2023-08-12T13:30:28;5.45;;;3.97;;
21611;SDS011;47005;52.292;13.452;2023-08-12T13:32:54;7.38;;;5.10;;
21611;SDS011;47005;52.292;13.452;2023-08-12T13:35:21;8.10;;;4.45;;
21611;SDS011;47005;52.292;13.452;2023-08-12T13:37:47;5.70;;;3.90;;
21611;SDS011;47005;52.292;13.452;2023-08-12T13:40:13;5.22;;;4.05;;
21611;SDS011;47005;52.292;13.452;2023-08-12T13:42:40;5.28;;;3.80;;
21611;SDS011;47005;52.292;13.452;2023-08-12T13:45:07;6.40;;;3.95;;
21611;SDS011;47005;52.292;13.452;2023-08-12T13:47:33;5.90;;;4.25;;
21611;SDS011;47005;52.292;13.452;2023-08-12T13:49:59;6.13;;;4.28;;
21611;SDS011;47005;52.292;13.452;2023-08-12T13:52:25;6.72;;;4.05;;
21611;SDS011;47005;52.292;13.452;2023-08-12T13:54:51;7.57;;;4.43;;
21611;SDS011;47005;52.292;13.452;2023-08-12T13:57:16;7.90;;;3.92;;
21611;SDS011;47005;52.292;13.452;2023-08-12T13:59:42;4.43;;;3.42;;
21611;SDS011;47005;52.292;13.452;2023-08-12T14:02:09;5.22;;;3.88;;
21611;SDS011;47005;52.292;13.452;2023-08-12T14:04:35;6.85;;;3.95;;
21611;SDS011;47005;52.292;13.452;2023-08-12T14:07:02;4.18;;;3.65;;
21611;SDS011;47005;52.292;13.452;2023-08-12T14:09:28;5.00;;;3.90;;
21611;SDS011;47005;52.292;13.452;2023-08-12T14:11:54;7.00;;;3.85;;
21611;SDS011;47005;52.292;13.452;2023-08-12T14:14:20;7.18;;;3.75;;
21611;SDS011;47005;52.292;13.452;2023-08-12T14:16:46;4.90;;;3.90;;
21611;SDS011;47005;52.292;13.452;2023-08-12T14:19:11;6.60;;;4.07;;
21611;SDS011;47005;52.292;13.452;2023-08-12T14:21:41;4.88;;;3.60;;
21611;SDS011;47005;52.292;13.452;2023-08-12T14:24:07;4.60;;;3.92;;
21611;SDS011;47005;52.292;13.452;2023-08-12T14:26:33;5.00;;;3.92;;
21611;SDS011;47005;52.292;13.452;2023-08-12T14:28:59;5.93;;;4.18;;
21611;SDS011;47005;52.292;13.452;2023-08-12T14:31:25;5.80;;;4.50;;
21611;SDS011;47005;52.292;13.452;2023-08-12T14:33:51;4.43;;;3.70;;
21611;SDS011;47005;52.292;13.452;2023-08-12T14:36:16;7.13;;;4.30;;
21611;SDS011;47005;52.292;13.452;2023-08-12T14:38:42;4.68;;;3.58;;
21611;SDS011;47005;52.292;13.452;2023-08-12T14:41:07;6.50;;;4.03;;
21611;SDS011;47005;52.292;13.452;2023-08-12T14:43:33;6.55;;;3.78;;
21611;SDS011;47005;52.292;13.452;2023-08-12T14:45:59;4.65;;;3.90;;